<?xml version="1.0" encoding="UTF-8" standalone="no" ?>
<gpx xmlns="http://www.topografix.com/GPX/1/1" xmlns:xsi="http://www.w3.org/2001/XMLSchema-instance" xsi:schemaLocation="http://www.topografix.com/GPX/1/1 http://www.topografix.com/GPX/1/1/gpx.xsd" version="1.1" creator="VisuGPX - https://www.visugpx.com">
  <metadata>
    <name>Norvège</name>
  </metadata>
  <trk>
    <name><![CDATA[Tour d'Europe: étape 027]]></name>
    <trkseg>
      <trkpt lat="60.3904" lon="5.32163">
        <ele>79.657499</ele>
        <time>2020-07-25T07:32:09.960Z</time>
      </trkpt>
      <trkpt lat="60.3924" lon="5.32358">
        <ele>88.155806</ele>
        <time>2020-07-25T07:33:12.988Z</time>
      </trkpt>
      <trkpt lat="60.39431" lon="5.32513">
        <ele>73.516732</ele>
        <time>2020-07-25T07:34:23.961Z</time>
      </trkpt>
      <trkpt lat="60.39633" lon="5.32475">
        <ele>59.031814</ele>
        <time>2020-07-25T07:41:43.944Z</time>
      </trkpt>
      <trkpt lat="60.39783" lon="5.32159">
        <ele>53.304354</ele>
        <time>2020-07-25T07:42:23.941Z</time>
      </trkpt>
      <trkpt lat="60.39889" lon="5.31808">
        <ele>58.754379</ele>
        <time>2020-07-25T07:43:05.952Z</time>
      </trkpt>
      <trkpt lat="60.40078" lon="5.31563">
        <ele>66.270677</ele>
        <time>2020-07-25T07:43:47.973Z</time>
      </trkpt>
      <trkpt lat="60.40196" lon="5.31851">
        <ele>62.168376</ele>
        <time>2020-07-25T07:44:27.943Z</time>
      </trkpt>
      <trkpt lat="60.40306" lon="5.3215">
        <ele>60.465287</ele>
        <time>2020-07-25T07:45:07.958Z</time>
      </trkpt>
      <trkpt lat="60.40654" lon="5.32295">
        <ele>67.72305</ele>
        <time>2020-07-25T07:46:24.968Z</time>
      </trkpt>
      <trkpt lat="60.40871" lon="5.32257">
        <ele>59.80971</ele>
        <time>2020-07-25T07:47:05.987Z</time>
      </trkpt>
      <trkpt lat="60.41102" lon="5.32337">
        <ele>55.985559</ele>
        <time>2020-07-25T07:47:54.947Z</time>
      </trkpt>
      <trkpt lat="60.41301" lon="5.32256">
        <ele>65.62492</ele>
        <time>2020-07-25T07:48:39.949Z</time>
      </trkpt>
      <trkpt lat="60.41487" lon="5.3206">
        <ele>84.892632</ele>
        <time>2020-07-25T07:49:54.952Z</time>
      </trkpt>
      <trkpt lat="60.4162" lon="5.31715">
        <ele>84.404628</ele>
        <time>2020-07-25T07:50:52.951Z</time>
      </trkpt>
      <trkpt lat="60.41754" lon="5.3137">
        <ele>85.02839</ele>
        <time>2020-07-25T07:51:59.946Z</time>
      </trkpt>
      <trkpt lat="60.41899" lon="5.3109">
        <ele>89.378152</ele>
        <time>2020-07-25T07:53:12.945Z</time>
      </trkpt>
      <trkpt lat="60.42079" lon="5.30862">
        <ele>95.603033</ele>
        <time>2020-07-25T07:54:07.955Z</time>
      </trkpt>
      <trkpt lat="60.4224" lon="5.30611">
        <ele>106.11095</ele>
        <time>2020-07-25T07:55:37.957Z</time>
      </trkpt>
      <trkpt lat="60.42429" lon="5.30377">
        <ele>109.231514</ele>
        <time>2020-07-25T07:59:32.980Z</time>
      </trkpt>
      <trkpt lat="60.4259" lon="5.29962">
        <ele>97.649189</ele>
        <time>2020-07-25T08:00:15.954Z</time>
      </trkpt>
      <trkpt lat="60.42746" lon="5.29668">
        <ele>104.176947</ele>
        <time>2020-07-25T08:01:15.964Z</time>
      </trkpt>
      <trkpt lat="60.42846" lon="5.29248">
        <ele>107.992344</ele>
        <time>2020-07-25T08:02:16.960Z</time>
      </trkpt>
      <trkpt lat="60.43011" lon="5.28969">
        <ele>106.713325</ele>
        <time>2020-07-25T08:03:25.983Z</time>
      </trkpt>
      <trkpt lat="60.43156" lon="5.2865">
        <ele>108.588936</ele>
        <time>2020-07-25T08:04:20.975Z</time>
      </trkpt>
      <trkpt lat="60.43378" lon="5.28501">
        <ele>105.049319</ele>
        <time>2020-07-25T08:05:00.966Z</time>
      </trkpt>
      <trkpt lat="60.43584" lon="5.28587">
        <ele>103.590784</ele>
        <time>2020-07-25T08:05:40.970Z</time>
      </trkpt>
      <trkpt lat="60.43813" lon="5.28645">
        <ele>97.757904</ele>
        <time>2020-07-25T08:06:22.987Z</time>
      </trkpt>
      <trkpt lat="60.44037" lon="5.28411">
        <ele>98.445077</ele>
        <time>2020-07-25T08:07:02.966Z</time>
      </trkpt>
      <trkpt lat="60.44231" lon="5.2827">
        <ele>101.914249</ele>
        <time>2020-07-25T08:07:42.994Z</time>
      </trkpt>
      <trkpt lat="60.44438" lon="5.28141">
        <ele>100.646035</ele>
        <time>2020-07-25T08:08:28.974Z</time>
      </trkpt>
      <trkpt lat="60.44506" lon="5.28512">
        <ele>102.183986</ele>
        <time>2020-07-25T08:09:21.002Z</time>
      </trkpt>
      <trkpt lat="60.44413" lon="5.29052">
        <ele>90.862473</ele>
        <time>2020-07-25T08:10:02.966Z</time>
      </trkpt>
      <trkpt lat="60.443" lon="5.29441">
        <ele>86.772645</ele>
        <time>2020-07-25T08:10:42.963Z</time>
      </trkpt>
      <trkpt lat="60.44158" lon="5.2974">
        <ele>89.870387</ele>
        <time>2020-07-25T08:11:22.975Z</time>
      </trkpt>
      <trkpt lat="60.44036" lon="5.30083">
        <ele>89.078656</ele>
        <time>2020-07-25T08:12:03.956Z</time>
      </trkpt>
      <trkpt lat="60.43886" lon="5.30395">
        <ele>86.934762</ele>
        <time>2020-07-25T08:12:50.984Z</time>
      </trkpt>
      <trkpt lat="60.43793" lon="5.30801">
        <ele>75.341478</ele>
        <time>2020-07-25T08:13:30.954Z</time>
      </trkpt>
      <trkpt lat="60.43666" lon="5.31173">
        <ele>69.899673</ele>
        <time>2020-07-25T08:14:10.997Z</time>
      </trkpt>
      <trkpt lat="60.4365" lon="5.31598">
        <ele>64.457982</ele>
        <time>2020-07-25T08:14:50.987Z</time>
      </trkpt>
      <trkpt lat="60.4365" lon="5.32019">
        <ele>68.112227</ele>
        <time>2020-07-25T08:15:45.972Z</time>
      </trkpt>
      <trkpt lat="60.43828" lon="5.32211">
        <ele>81.978426</ele>
        <time>2020-07-25T08:17:11.955Z</time>
      </trkpt>
      <trkpt lat="60.44022" lon="5.32313">
        <ele>86.234437</ele>
        <time>2020-07-25T08:18:33.949Z</time>
      </trkpt>
      <trkpt lat="60.44223" lon="5.32268">
        <ele>91.776012</ele>
        <time>2020-07-25T08:19:55.972Z</time>
      </trkpt>
      <trkpt lat="60.44309" lon="5.3241">
        <ele>98.670565</ele>
        <time>2020-07-25T08:21:05.975Z</time>
      </trkpt>
      <trkpt lat="60.44368" lon="5.32633">
        <ele>107.548559</ele>
        <time>2020-07-25T08:22:33.954Z</time>
      </trkpt>
      <trkpt lat="60.4455" lon="5.32478">
        <ele>108.01749</ele>
        <time>2020-07-25T08:23:38.974Z</time>
      </trkpt>
      <trkpt lat="60.44752" lon="5.3223">
        <ele>107.120866</ele>
        <time>2020-07-25T08:24:31.964Z</time>
      </trkpt>
      <trkpt lat="60.44953" lon="5.31972">
        <ele>105.354566</ele>
        <time>2020-07-25T08:25:18.961Z</time>
      </trkpt>
      <trkpt lat="60.45162" lon="5.31856">
        <ele>110.923749</ele>
        <time>2020-07-25T08:26:19.967Z</time>
      </trkpt>
      <trkpt lat="60.45375" lon="5.31777">
        <ele>124.052281</ele>
        <time>2020-07-25T08:27:31.952Z</time>
      </trkpt>
      <trkpt lat="60.45575" lon="5.31837">
        <ele>132.778515</ele>
        <time>2020-07-25T08:29:10.986Z</time>
      </trkpt>
      <trkpt lat="60.45513" lon="5.3151">
        <ele>146.082137</ele>
        <time>2020-07-25T08:31:03.992Z</time>
      </trkpt>
      <trkpt lat="60.45649" lon="5.31062">
        <ele>144.687807</ele>
        <time>2020-07-25T08:31:55.967Z</time>
      </trkpt>
      <trkpt lat="60.45695" lon="5.30588">
        <ele>135.929174</ele>
        <time>2020-07-25T08:32:37.983Z</time>
      </trkpt>
      <trkpt lat="60.45654" lon="5.30188">
        <ele>127.570955</ele>
        <time>2020-07-25T08:32:57.958Z</time>
      </trkpt>
      <trkpt lat="60.45488" lon="5.29858">
        <ele>114.369823</ele>
        <time>2020-07-25T08:33:24.968Z</time>
      </trkpt>
      <trkpt lat="60.45587" lon="5.29408">
        <ele>97.671665</ele>
        <time>2020-07-25T08:33:45.958Z</time>
      </trkpt>
      <trkpt lat="60.45692" lon="5.29001">
        <ele>83.788811</ele>
        <time>2020-07-25T08:34:05.969Z</time>
      </trkpt>
      <trkpt lat="60.45892" lon="5.28785">
        <ele>81.475459</ele>
        <time>2020-07-25T08:34:45.006Z</time>
      </trkpt>
      <trkpt lat="60.45995" lon="5.28423">
        <ele>89.770691</ele>
        <time>2020-07-25T08:35:46.986Z</time>
      </trkpt>
      <trkpt lat="60.46214" lon="5.28115">
        <ele>85.031136</ele>
        <time>2020-07-25T08:36:37.993Z</time>
      </trkpt>
      <trkpt lat="60.46413" lon="5.27828">
        <ele>75.539869</ele>
        <time>2020-07-25T08:37:14.957Z</time>
      </trkpt>
      <trkpt lat="60.46637" lon="5.27672">
        <ele>70.101861</ele>
        <time>2020-07-25T08:38:00.979Z</time>
      </trkpt>
      <trkpt lat="60.46832" lon="5.27759">
        <ele>80.385996</ele>
        <time>2020-07-25T08:39:04.996Z</time>
      </trkpt>
      <trkpt lat="60.46995" lon="5.27507">
        <ele>98.638247</ele>
        <time>2020-07-25T08:41:16.991Z</time>
      </trkpt>
      <trkpt lat="60.47163" lon="5.27288">
        <ele>108.514388</ele>
        <time>2020-07-25T08:44:05.964Z</time>
      </trkpt>
      <trkpt lat="60.47299" lon="5.27007">
        <ele>126.013821</ele>
        <time>2020-07-25T08:46:11.957Z</time>
      </trkpt>
      <trkpt lat="60.4743" lon="5.26638">
        <ele>126.660632</ele>
        <time>2020-07-25T08:47:26.009Z</time>
      </trkpt>
      <trkpt lat="60.47611" lon="5.26273">
        <ele>110.677206</ele>
        <time>2020-07-25T08:47:46.979Z</time>
      </trkpt>
      <trkpt lat="60.47778" lon="5.25963">
        <ele>104.301661</ele>
        <time>2020-07-25T08:48:25.996Z</time>
      </trkpt>
      <trkpt lat="60.47984" lon="5.25849">
        <ele>104.442463</ele>
        <time>2020-07-25T08:49:18.968Z</time>
      </trkpt>
      <trkpt lat="60.48179" lon="5.2573">
        <ele>102.432881</ele>
        <time>2020-07-25T08:49:53.977Z</time>
      </trkpt>
      <trkpt lat="60.48394" lon="5.25959">
        <ele>93.736395</ele>
        <time>2020-07-25T08:51:55.965Z</time>
      </trkpt>
      <trkpt lat="60.4866" lon="5.25936">
        <ele>78.734613</ele>
        <time>2020-07-25T08:52:41.004Z</time>
      </trkpt>
      <trkpt lat="60.48907" lon="5.26078">
        <ele>72.277025</ele>
        <time>2020-07-25T08:53:22.992Z</time>
      </trkpt>
      <trkpt lat="60.49081" lon="5.26175">
        <ele>88.132832</ele>
        <time>2020-07-25T08:57:35.963Z</time>
      </trkpt>
      <trkpt lat="60.49017" lon="5.26552">
        <ele>105.744512</ele>
        <time>2020-07-25T08:59:22.972Z</time>
      </trkpt>
      <trkpt lat="60.4908" lon="5.26704">
        <ele>101.453769</ele>
        <time>2020-07-25T09:00:42.978Z</time>
      </trkpt>
      <trkpt lat="60.49225" lon="5.26406">
        <ele>101.579219</ele>
        <time>2020-07-25T09:01:43.972Z</time>
      </trkpt>
      <trkpt lat="60.49333" lon="5.26258">
        <ele>106.7345</ele>
        <time>2020-07-25T09:03:46.001Z</time>
      </trkpt>
      <trkpt lat="60.49527" lon="5.26236">
        <ele>109.01089</ele>
        <time>2020-07-25T09:05:15.992Z</time>
      </trkpt>
      <trkpt lat="60.49734" lon="5.26304">
        <ele>116.410647</ele>
        <time>2020-07-25T09:06:42.966Z</time>
      </trkpt>
      <trkpt lat="60.49944" lon="5.26406">
        <ele>123.492108</ele>
        <time>2020-07-25T09:07:54.985Z</time>
      </trkpt>
      <trkpt lat="60.50168" lon="5.26389">
        <ele>110.833675</ele>
        <time>2020-07-25T09:08:34.983Z</time>
      </trkpt>
      <trkpt lat="60.50425" lon="5.26547">
        <ele>88.897631</ele>
        <time>2020-07-25T09:09:14.987Z</time>
      </trkpt>
      <trkpt lat="60.50604" lon="5.26852">
        <ele>69.671307</ele>
        <time>2020-07-25T09:09:58.991Z</time>
      </trkpt>
      <trkpt lat="60.50727" lon="5.27165">
        <ele>86.630199</ele>
        <time>2020-07-25T09:13:26.962Z</time>
      </trkpt>
      <trkpt lat="60.50816" lon="5.27416">
        <ele>103.715083</ele>
        <time>2020-07-25T09:15:47.979Z</time>
      </trkpt>
      <trkpt lat="60.51035" lon="5.27524">
        <ele>105.587315</ele>
        <time>2020-07-25T09:17:10.969Z</time>
      </trkpt>
      <trkpt lat="60.51224" lon="5.27697">
        <ele>110.577426</ele>
        <time>2020-07-25T09:18:28.973Z</time>
      </trkpt>
      <trkpt lat="60.51415" lon="5.28033">
        <ele>111.996211</ele>
        <time>2020-07-25T09:19:26.011Z</time>
      </trkpt>
      <trkpt lat="60.51592" lon="5.28251">
        <ele>90.98476</ele>
        <time>2020-07-25T09:20:05.963Z</time>
      </trkpt>
      <trkpt lat="60.51672" lon="5.28401">
        <ele>74.203775</ele>
        <time>2020-07-25T09:23:03.007Z</time>
      </trkpt>
      <trkpt lat="60.51817" lon="5.28049">
        <ele>67.546482</ele>
        <time>2020-07-25T09:23:36.962Z</time>
      </trkpt>
      <trkpt lat="60.51923" lon="5.27666">
        <ele>68.034364</ele>
        <time>2020-07-25T09:25:12.974Z</time>
      </trkpt>
      <trkpt lat="60.51943" lon="5.27507">
        <ele>76.529304</ele>
        <time>2020-07-25T09:26:44.985Z</time>
      </trkpt>
      <trkpt lat="60.52061" lon="5.2718">
        <ele>80.351502</ele>
        <time>2020-07-25T09:28:01.977Z</time>
      </trkpt>
      <trkpt lat="60.52223" lon="5.26759">
        <ele>62.973887</ele>
        <time>2020-07-25T09:28:45.964Z</time>
      </trkpt>
      <trkpt lat="60.52436" lon="5.26364">
        <ele>52.814677</ele>
        <time>2020-07-25T09:29:28.004Z</time>
      </trkpt>
      <trkpt lat="60.52605" lon="5.26141">
        <ele>56.932235</ele>
        <time>2020-07-25T09:30:07.972Z</time>
      </trkpt>
      <trkpt lat="60.52783" lon="5.25972">
        <ele>58.802111</ele>
        <time>2020-07-25T09:30:49.004Z</time>
      </trkpt>
      <trkpt lat="60.52973" lon="5.25844">
        <ele>56.754934</ele>
        <time>2020-07-25T09:31:29.005Z</time>
      </trkpt>
      <trkpt lat="60.53181" lon="5.25673">
        <ele>57.282181</ele>
        <time>2020-07-25T09:32:16.984Z</time>
      </trkpt>
      <trkpt lat="60.53294" lon="5.25714">
        <ele>58.317047</ele>
        <time>2020-07-25T09:34:22.004Z</time>
      </trkpt>
      <trkpt lat="60.5347" lon="5.25889">
        <ele>69.031031</ele>
        <time>2020-07-25T09:36:06.995Z</time>
      </trkpt>
      <trkpt lat="60.53668" lon="5.2584">
        <ele>78.834141</ele>
        <time>2020-07-25T09:37:45.969Z</time>
      </trkpt>
      <trkpt lat="60.53884" lon="5.25978">
        <ele>77.096679</ele>
        <time>2020-07-25T09:38:39.003Z</time>
      </trkpt>
      <trkpt lat="60.54071" lon="5.26137">
        <ele>84.841834</ele>
        <time>2020-07-25T09:39:59.984Z</time>
      </trkpt>
      <trkpt lat="60.54217" lon="5.264">
        <ele>89.541252</ele>
        <time>2020-07-25T09:41:28.995Z</time>
      </trkpt>
      <trkpt lat="60.54222" lon="5.26857">
        <ele>92.816392</ele>
        <time>2020-07-25T09:42:21.985Z</time>
      </trkpt>
      <trkpt lat="60.54305" lon="5.27226">
        <ele>100.499606</ele>
        <time>2020-07-25T09:44:01.978Z</time>
      </trkpt>
      <trkpt lat="60.544" lon="5.27655">
        <ele>95.351022</ele>
        <time>2020-07-25T09:46:21.991Z</time>
      </trkpt>
      <trkpt lat="60.54502" lon="5.28136">
        <ele>82.729947</ele>
        <time>2020-07-25T09:47:06.994Z</time>
      </trkpt>
      <trkpt lat="60.54635" lon="5.2806">
        <ele>85.91822</ele>
        <time>2020-07-25T09:49:14.988Z</time>
      </trkpt>
      <trkpt lat="60.5483" lon="5.281">
        <ele>104.256482</ele>
        <time>2020-07-25T09:51:15.005Z</time>
      </trkpt>
      <trkpt lat="60.55036" lon="5.28005">
        <ele>115.844603</ele>
        <time>2020-07-25T09:53:11.988Z</time>
      </trkpt>
      <trkpt lat="60.55219" lon="5.27731">
        <ele>93.747764</ele>
        <time>2020-07-25T09:53:52.019Z</time>
      </trkpt>
      <trkpt lat="60.55338" lon="5.27343">
        <ele>64.798934</ele>
        <time>2020-07-25T09:54:21.969Z</time>
      </trkpt>
      <trkpt lat="60.55508" lon="5.2701">
        <ele>58.194542</ele>
        <time>2020-07-25T09:55:11.988Z</time>
      </trkpt>
      <trkpt lat="60.55498" lon="5.26618">
        <ele>76.336029</ele>
        <time>2020-07-25T09:57:08.966Z</time>
      </trkpt>
      <trkpt lat="60.55644" lon="5.26365">
        <ele>93.290465</ele>
        <time>2020-07-25T09:59:25.963Z</time>
      </trkpt>
      <trkpt lat="60.55804" lon="5.26166">
        <ele>107.697352</ele>
        <time>2020-07-25T10:01:38.971Z</time>
      </trkpt>
      <trkpt lat="60.55937" lon="5.25794">
        <ele>111.288237</ele>
        <time>2020-07-25T10:13:12.981Z</time>
      </trkpt>
      <trkpt lat="60.56072" lon="5.25396">
        <ele>108.400254</ele>
        <time>2020-07-25T10:14:05.015Z</time>
      </trkpt>
      <trkpt lat="60.56195" lon="5.25061">
        <ele>108.395833</ele>
        <time>2020-07-25T10:15:05.974Z</time>
      </trkpt>
      <trkpt lat="60.5627" lon="5.25088">
        <ele>108.858191</ele>
        <time>2020-07-25T10:16:46.006Z</time>
      </trkpt>
      <trkpt lat="60.56418" lon="5.24867">
        <ele>115.951932</ele>
        <time>2020-07-25T10:18:14.992Z</time>
      </trkpt>
      <trkpt lat="60.56589" lon="5.24545">
        <ele>120.847947</ele>
        <time>2020-07-25T10:19:06.014Z</time>
      </trkpt>
      <trkpt lat="60.56699" lon="5.24177">
        <ele>127.989001</ele>
        <time>2020-07-25T10:28:41.978Z</time>
      </trkpt>
      <trkpt lat="60.56869" lon="5.23831">
        <ele>119.013122</ele>
        <time>2020-07-25T10:29:37.984Z</time>
      </trkpt>
      <trkpt lat="60.57084" lon="5.23496">
        <ele>94.065535</ele>
        <time>2020-07-25T10:30:20.980Z</time>
      </trkpt>
      <trkpt lat="60.57116" lon="5.23314">
        <ele>86.630609</ele>
        <time>2020-07-25T10:31:32.015Z</time>
      </trkpt>
      <trkpt lat="60.57103" lon="5.22874">
        <ele>77.703321</ele>
        <time>2020-07-25T10:36:32.004Z</time>
      </trkpt>
      <trkpt lat="60.57192" lon="5.22558">
        <ele>81.835513</ele>
        <time>2020-07-25T10:37:21.021Z</time>
      </trkpt>
      <trkpt lat="60.57373" lon="5.22375">
        <ele>86.967077</ele>
        <time>2020-07-25T10:38:49.986Z</time>
      </trkpt>
      <trkpt lat="60.57568" lon="5.22171">
        <ele>78.717739</ele>
        <time>2020-07-25T10:39:20.994Z</time>
      </trkpt>
      <trkpt lat="60.57803" lon="5.21874">
        <ele>73.873774</ele>
        <time>2020-07-25T10:39:54.985Z</time>
      </trkpt>
      <trkpt lat="60.58023" lon="5.21593">
        <ele>70.750077</ele>
        <time>2020-07-25T10:40:29.974Z</time>
      </trkpt>
      <trkpt lat="60.58208" lon="5.21291">
        <ele>80.223042</ele>
        <time>2020-07-25T10:41:22.003Z</time>
      </trkpt>
      <trkpt lat="60.58379" lon="5.21049">
        <ele>91.640506</ele>
        <time>2020-07-25T10:42:37.994Z</time>
      </trkpt>
      <trkpt lat="60.5857" lon="5.20805">
        <ele>89.161766</ele>
        <time>2020-07-25T10:43:35.986Z</time>
      </trkpt>
      <trkpt lat="60.58807" lon="5.20718">
        <ele>74.481553</ele>
        <time>2020-07-25T10:44:03.042Z</time>
      </trkpt>
      <trkpt lat="60.59073" lon="5.20602">
        <ele>68.03297</ele>
        <time>2020-07-25T10:44:41.976Z</time>
      </trkpt>
      <trkpt lat="60.5928" lon="5.20547">
        <ele>72.650463</ele>
        <time>2020-07-25T10:45:38.979Z</time>
      </trkpt>
      <trkpt lat="60.59492" lon="5.20445">
        <ele>83.352655</ele>
        <time>2020-07-25T10:46:44.004Z</time>
      </trkpt>
      <trkpt lat="60.59694" lon="5.20323">
        <ele>89.558846</ele>
        <time>2020-07-25T10:47:49.995Z</time>
      </trkpt>
      <trkpt lat="60.59898" lon="5.2021">
        <ele>89.648221</ele>
        <time>2020-07-25T10:48:43.992Z</time>
      </trkpt>
      <trkpt lat="60.60088" lon="5.19989">
        <ele>89.240067</ele>
        <time>2020-07-25T10:49:34.994Z</time>
      </trkpt>
      <trkpt lat="60.60276" lon="5.1968">
        <ele>90.382352</ele>
        <time>2020-07-25T10:50:29.976Z</time>
      </trkpt>
      <trkpt lat="60.60457" lon="5.19504">
        <ele>90.666243</ele>
        <time>2020-07-25T10:51:12.976Z</time>
      </trkpt>
      <trkpt lat="60.6063" lon="5.19311">
        <ele>89.978999</ele>
        <time>2020-07-25T10:51:52.982Z</time>
      </trkpt>
      <trkpt lat="60.60759" lon="5.18995">
        <ele>87.275604</ele>
        <time>2020-07-25T10:52:41.004Z</time>
      </trkpt>
      <trkpt lat="60.60833" lon="5.18666">
        <ele>84.420007</ele>
        <time>2020-07-25T10:53:21.990Z</time>
      </trkpt>
      <trkpt lat="60.61052" lon="5.18652">
        <ele>90.675269</ele>
        <time>2020-07-25T10:54:26.027Z</time>
      </trkpt>
      <trkpt lat="60.61265" lon="5.18624">
        <ele>103.352055</ele>
        <time>2020-07-25T10:55:43.979Z</time>
      </trkpt>
      <trkpt lat="60.61429" lon="5.1837">
        <ele>107.32974</ele>
        <time>2020-07-25T10:56:53.065Z</time>
      </trkpt>
      <trkpt lat="60.61577" lon="5.18065">
        <ele>104.433916</ele>
        <time>2020-07-25T10:57:49.988Z</time>
      </trkpt>
      <trkpt lat="60.61759" lon="5.17696">
        <ele>104.468572</ele>
        <time>2020-07-25T10:58:36.976Z</time>
      </trkpt>
      <trkpt lat="60.61923" lon="5.17357">
        <ele>101.601847</ele>
        <time>2020-07-25T10:59:25.976Z</time>
      </trkpt>
      <trkpt lat="60.62075" lon="5.17009">
        <ele>97.734913</ele>
        <time>2020-07-25T11:00:05.985Z</time>
      </trkpt>
      <trkpt lat="60.62199" lon="5.16646">
        <ele>101.353924</ele>
        <time>2020-07-25T11:00:54.027Z</time>
      </trkpt>
      <trkpt lat="60.62372" lon="5.16344">
        <ele>113.944028</ele>
        <time>2020-07-25T11:01:54.975Z</time>
      </trkpt>
      <trkpt lat="60.62551" lon="5.16133">
        <ele>116.403575</ele>
        <time>2020-07-25T11:03:07.993Z</time>
      </trkpt>
      <trkpt lat="60.62771" lon="5.15914">
        <ele>108.127257</ele>
        <time>2020-07-25T11:03:47.994Z</time>
      </trkpt>
      <trkpt lat="60.6296" lon="5.15678">
        <ele>106.64017</ele>
        <time>2020-07-25T11:04:36.980Z</time>
      </trkpt>
      <trkpt lat="60.63162" lon="5.15315">
        <ele>102.538816</ele>
        <time>2020-07-25T11:05:21.004Z</time>
      </trkpt>
      <trkpt lat="60.63315" lon="5.14969">
        <ele>102.199139</ele>
        <time>2020-07-25T11:06:01.003Z</time>
      </trkpt>
      <trkpt lat="60.63402" lon="5.1452">
        <ele>105.643032</ele>
        <time>2020-07-25T11:06:58.971Z</time>
      </trkpt>
      <trkpt lat="60.63355" lon="5.14159">
        <ele>115.689947</ele>
        <time>2020-07-25T11:08:31.015Z</time>
      </trkpt>
      <trkpt lat="60.63255" lon="5.13814">
        <ele>119.881893</ele>
        <time>2020-07-25T11:09:39.984Z</time>
      </trkpt>
      <trkpt lat="60.63289" lon="5.13267">
        <ele>105.01831</ele>
        <time>2020-07-25T11:10:13.980Z</time>
      </trkpt>
      <trkpt lat="60.63248" lon="5.1285">
        <ele>104.362139</ele>
        <time>2020-07-25T11:10:55.025Z</time>
      </trkpt>
      <trkpt lat="60.63402" lon="5.1256">
        <ele>104.219657</ele>
        <time>2020-07-25T11:11:42.977Z</time>
      </trkpt>
      <trkpt lat="60.63566" lon="5.12151">
        <ele>93.947407</ele>
        <time>2020-07-25T11:12:17.972Z</time>
      </trkpt>
      <trkpt lat="60.6349" lon="5.11961">
        <ele>79.283336</ele>
        <time>2020-07-25T11:12:42.987Z</time>
      </trkpt>
      <trkpt lat="60.63637" lon="5.11692">
        <ele>87.463755</ele>
        <time>2020-07-25T11:14:14.986Z</time>
      </trkpt>
      <trkpt lat="60.6348" lon="5.11504">
        <ele>92.94628</ele>
        <time>2020-07-25T11:15:59.000Z</time>
      </trkpt>
      <trkpt lat="60.63611" lon="5.1112">
        <ele>94.214209</ele>
        <time>2020-07-25T11:16:48.007Z</time>
      </trkpt>
      <trkpt lat="60.6353" lon="5.1076">
        <ele>89.701842</ele>
        <time>2020-07-25T11:17:41.985Z</time>
      </trkpt>
      <trkpt lat="60.63474" lon="5.10312">
        <ele>77.914961</ele>
        <time>2020-07-25T11:18:06.980Z</time>
      </trkpt>
      <trkpt lat="60.63452" lon="5.09907">
        <ele>68.85335</ele>
        <time>2020-07-25T11:18:42.997Z</time>
      </trkpt>
      <trkpt lat="60.63255" lon="5.09975">
        <ele>90.878445</ele>
        <time>2020-07-25T11:20:32.999Z</time>
      </trkpt>
      <trkpt lat="60.63053" lon="5.10038">
        <ele>106.928635</ele>
        <time>2020-07-25T11:22:51.984Z</time>
      </trkpt>
      <trkpt lat="60.62858" lon="5.10108">
        <ele>112.34458</ele>
        <time>2020-07-25T11:24:42.992Z</time>
      </trkpt>
      <trkpt lat="60.6269" lon="5.09953">
        <ele>111.791897</ele>
        <time>2020-07-25T11:25:38.978Z</time>
      </trkpt>
      <trkpt lat="60.62763" lon="5.09447">
        <ele>105.403986</ele>
        <time>2020-07-25T11:26:18.988Z</time>
      </trkpt>
      <trkpt lat="60.62794" lon="5.08977">
        <ele>94.835885</ele>
        <time>2020-07-25T11:27:01.002Z</time>
      </trkpt>
      <trkpt lat="60.6279" lon="5.08524">
        <ele>88.096484</ele>
        <time>2020-07-25T11:27:24.987Z</time>
      </trkpt>
      <trkpt lat="60.62939" lon="5.0812">
        <ele>80.518126</ele>
        <time>2020-07-25T11:27:58.012Z</time>
      </trkpt>
      <trkpt lat="60.63018" lon="5.07617">
        <ele>73.47983</ele>
        <time>2020-07-25T11:28:31.017Z</time>
      </trkpt>
      <trkpt lat="60.63141" lon="5.07293">
        <ele>78.375447</ele>
        <time>2020-07-25T11:29:45.974Z</time>
      </trkpt>
      <trkpt lat="60.63283" lon="5.06924">
        <ele>83.466269</ele>
        <time>2020-07-25T11:31:00.004Z</time>
      </trkpt>
      <trkpt lat="60.63473" lon="5.06639">
        <ele>78.046708</ele>
        <time>2020-07-25T11:31:53.007Z</time>
      </trkpt>
      <trkpt lat="60.63642" lon="5.06354">
        <ele>79.193519</ele>
        <time>2020-07-25T11:32:47.022Z</time>
      </trkpt>
      <trkpt lat="60.63808" lon="5.06077">
        <ele>80.884598</ele>
        <time>2020-07-25T11:33:36.004Z</time>
      </trkpt>
      <trkpt lat="60.63953" lon="5.05718">
        <ele>82.065448</ele>
        <time>2020-07-25T11:34:37.022Z</time>
      </trkpt>
      <trkpt lat="60.64004" lon="5.05269">
        <ele>81.243914</ele>
        <time>2020-07-25T11:35:28.986Z</time>
      </trkpt>
      <trkpt lat="60.64005" lon="5.04781">
        <ele>77.004021</ele>
        <time>2020-07-25T11:36:17.987Z</time>
      </trkpt>
      <trkpt lat="60.64073" lon="5.04392">
        <ele>80.003281</ele>
        <time>2020-07-25T11:37:33.989Z</time>
      </trkpt>
      <trkpt lat="60.64221" lon="5.04219">
        <ele>81.812416</ele>
        <time>2020-07-25T11:38:52.974Z</time>
      </trkpt>
      <trkpt lat="60.6446" lon="5.04234">
        <ele>78.163784</ele>
        <time>2020-07-25T11:39:41.975Z</time>
      </trkpt>
      <trkpt lat="60.64696" lon="5.04283">
        <ele>75.310885</ele>
        <time>2020-07-25T11:40:17.981Z</time>
      </trkpt>
      <trkpt lat="60.64854" lon="5.04026">
        <ele>75.158331</ele>
        <time>2020-07-25T11:41:03.013Z</time>
      </trkpt>
      <trkpt lat="60.65033" lon="5.03756">
        <ele>76.075276</ele>
        <time>2020-07-25T11:42:01.002Z</time>
      </trkpt>
      <trkpt lat="60.65141" lon="5.03389">
        <ele>80.356078</ele>
        <time>2020-07-25T11:42:57.984Z</time>
      </trkpt>
      <trkpt lat="60.65194" lon="5.02959">
        <ele>80.699538</ele>
        <time>2020-07-25T11:43:53.002Z</time>
      </trkpt>
      <trkpt lat="60.65246" lon="5.02536">
        <ele>79.067859</ele>
        <time>2020-07-25T11:44:32.996Z</time>
      </trkpt>
      <trkpt lat="60.65324" lon="5.02108">
        <ele>77.731893</ele>
        <time>2020-07-25T11:45:16.993Z</time>
      </trkpt>
      <trkpt lat="60.65396" lon="5.017">
        <ele>75.224199</ele>
        <time>2020-07-25T11:46:00.003Z</time>
      </trkpt>
      <trkpt lat="60.65524" lon="5.01346">
        <ele>73.622149</ele>
        <time>2020-07-25T11:46:46.005Z</time>
      </trkpt>
      <trkpt lat="60.65609" lon="5.00874">
        <ele>68.650201</ele>
        <time>2020-07-25T11:47:26.984Z</time>
      </trkpt>
      <trkpt lat="60.65623" lon="5.00413">
        <ele>62.351519</ele>
        <time>2020-07-25T11:48:04.995Z</time>
      </trkpt>
      <trkpt lat="60.65782" lon="5.00054">
        <ele>63.697985</ele>
        <time>2020-07-25T11:49:00.979Z</time>
      </trkpt>
      <trkpt lat="60.6592" lon="4.99734">
        <ele>65.84212</ele>
        <time>2020-07-25T11:49:44.987Z</time>
      </trkpt>
      <trkpt lat="60.66045" lon="4.9939">
        <ele>71.599378</ele>
        <time>2020-07-25T11:50:48.008Z</time>
      </trkpt>
      <trkpt lat="60.66159" lon="4.99041">
        <ele>76.701576</ele>
        <time>2020-07-25T11:52:05.993Z</time>
      </trkpt>
      <trkpt lat="60.66226" lon="4.98628">
        <ele>81.455536</ele>
        <time>2020-07-25T11:53:28.033Z</time>
      </trkpt>
      <trkpt lat="60.66336" lon="4.98202">
        <ele>76.426475</ele>
        <time>2020-07-25T11:54:10.986Z</time>
      </trkpt>
      <trkpt lat="60.66475" lon="4.97863">
        <ele>72.630815</ele>
        <time>2020-07-25T11:54:52.027Z</time>
      </trkpt>
      <trkpt lat="60.66664" lon="4.97601">
        <ele>74.952252</ele>
        <time>2020-07-25T11:55:49.000Z</time>
      </trkpt>
      <trkpt lat="60.66843" lon="4.97323">
        <ele>76.614194</ele>
        <time>2020-07-25T11:56:51.985Z</time>
      </trkpt>
      <trkpt lat="60.67055" lon="4.97005">
        <ele>71.218796</ele>
        <time>2020-07-25T11:57:33.981Z</time>
      </trkpt>
      <trkpt lat="60.67231" lon="4.96602">
        <ele>63.892766</ele>
        <time>2020-07-25T11:58:13.981Z</time>
      </trkpt>
      <trkpt lat="60.67441" lon="4.96263">
        <ele>63.217998</ele>
        <time>2020-07-25T11:58:53.982Z</time>
      </trkpt>
      <trkpt lat="60.67661" lon="4.95771">
        <ele>53.982486</ele>
        <time>2020-07-25T11:59:35.987Z</time>
      </trkpt>
      <trkpt lat="60.67825" lon="4.95389">
        <ele>48.733094</ele>
        <time>2020-07-25T12:00:16.054Z</time>
      </trkpt>
      <trkpt lat="60.67971" lon="4.95023">
        <ele>47.835864</ele>
        <time>2020-07-25T12:00:56.014Z</time>
      </trkpt>
      <trkpt lat="60.68139" lon="4.94805">
        <ele>57.618758</ele>
        <time>2020-07-25T12:02:19.029Z</time>
      </trkpt>
      <trkpt lat="60.68347" lon="4.94532">
        <ele>60.203676</ele>
        <time>2020-07-25T12:03:16.031Z</time>
      </trkpt>
      <trkpt lat="60.6846" lon="4.94209">
        <ele>61.364721</ele>
        <time>2020-07-25T12:04:30.998Z</time>
      </trkpt>
      <trkpt lat="60.68598" lon="4.93903">
        <ele>63.79551</ele>
        <time>2020-07-25T12:05:31.020Z</time>
      </trkpt>
      <trkpt lat="60.68836" lon="4.9358">
        <ele>56.263845</ele>
        <time>2020-07-25T12:06:14.992Z</time>
      </trkpt>
      <trkpt lat="60.69033" lon="4.93495">
        <ele>60.354171</ele>
        <time>2020-07-25T12:07:24.994Z</time>
      </trkpt>
      <trkpt lat="60.69248" lon="4.93457">
        <ele>70.410959</ele>
        <time>2020-07-25T12:09:01.985Z</time>
      </trkpt>
      <trkpt lat="60.69458" lon="4.93313">
        <ele>69.37489</ele>
        <time>2020-07-25T12:10:01.008Z</time>
      </trkpt>
      <trkpt lat="60.69662" lon="4.93107">
        <ele>66.002464</ele>
        <time>2020-07-25T12:10:41.987Z</time>
      </trkpt>
      <trkpt lat="60.69928" lon="4.92827">
        <ele>60.865517</ele>
        <time>2020-07-25T12:11:21.984Z</time>
      </trkpt>
      <trkpt lat="60.70117" lon="4.93004">
        <ele>63.610911</ele>
        <time>2020-07-25T12:12:26.982Z</time>
      </trkpt>
      <trkpt lat="60.70334" lon="4.93111">
        <ele>58.062831</ele>
        <time>2020-07-25T12:13:05.992Z</time>
      </trkpt>
      <trkpt lat="60.70403" lon="4.93441">
        <ele>62.155397</ele>
        <time>2020-07-25T12:14:38.991Z</time>
      </trkpt>
      <trkpt lat="60.70521" lon="4.93759">
        <ele>63.849915</ele>
        <time>2020-07-25T12:15:55.983Z</time>
      </trkpt>
      <trkpt lat="60.70501" lon="4.94198">
        <ele>72.243024</ele>
        <time>2020-07-25T12:17:28.995Z</time>
      </trkpt>
      <trkpt lat="60.7049" lon="4.94589">
        <ele>76.796601</ele>
        <time>2020-07-25T12:18:56.989Z</time>
      </trkpt>
      <trkpt lat="60.70637" lon="4.94905">
        <ele>81.627396</ele>
        <time>2020-07-25T12:19:50.011Z</time>
      </trkpt>
      <trkpt lat="60.7075" lon="4.95209">
        <ele>86.640931</ele>
        <time>2020-07-25T12:21:30.000Z</time>
      </trkpt>
      <trkpt lat="60.70787" lon="4.95661">
        <ele>79.101755</ele>
        <time>2020-07-25T12:22:23.991Z</time>
      </trkpt>
      <trkpt lat="60.70724" lon="4.96076">
        <ele>70.494097</ele>
        <time>2020-07-25T12:22:46.001Z</time>
      </trkpt>
      <trkpt lat="60.70658" lon="4.96461">
        <ele>72.305369</ele>
        <time>2020-07-25T12:23:58.984Z</time>
      </trkpt>
      <trkpt lat="60.70793" lon="4.96757">
        <ele>74.582746</ele>
        <time>2020-07-25T12:24:44.988Z</time>
      </trkpt>
      <trkpt lat="60.70762" lon="4.97147">
        <ele>81.490817</ele>
        <time>2020-07-25T12:26:42.008Z</time>
      </trkpt>
      <trkpt lat="60.70789" lon="4.97585">
        <ele>84.843967</ele>
        <time>2020-07-25T12:27:58.011Z</time>
      </trkpt>
      <trkpt lat="60.7075" lon="4.98084">
        <ele>78.622459</ele>
        <time>2020-07-25T12:28:31.014Z</time>
      </trkpt>
      <trkpt lat="60.70757" lon="4.98494">
        <ele>77.175476</ele>
        <time>2020-07-25T12:29:28.005Z</time>
      </trkpt>
      <trkpt lat="60.70911" lon="4.98359">
        <ele>81.834597</ele>
        <time>2020-07-25T12:30:46.981Z</time>
      </trkpt>
      <trkpt lat="60.71118" lon="4.98142">
        <ele>73.892269</ele>
        <time>2020-07-25T12:31:42.986Z</time>
      </trkpt>
      <trkpt lat="60.71248" lon="4.98301">
        <ele>52.092072</ele>
        <time>2020-07-25T12:32:27.031Z</time>
      </trkpt>
      <trkpt lat="60.71392" lon="4.9843">
        <ele>53.613611</ele>
        <time>2020-07-25T12:33:43.977Z</time>
      </trkpt>
      <trkpt lat="60.71606" lon="4.98437">
        <ele>59.269993</ele>
        <time>2020-07-25T12:35:07.000Z</time>
      </trkpt>
      <trkpt lat="60.7183" lon="4.98441">
        <ele>62.763147</ele>
        <time>2020-07-25T12:36:13.001Z</time>
      </trkpt>
      <trkpt lat="60.72035" lon="4.98303">
        <ele>64.407474</ele>
        <time>2020-07-25T12:37:14.991Z</time>
      </trkpt>
      <trkpt lat="60.72209" lon="4.98026">
        <ele>65.330742</ele>
        <time>2020-07-25T12:46:59.025Z</time>
      </trkpt>
      <trkpt lat="60.72371" lon="4.97725">
        <ele>71.158173</ele>
        <time>2020-07-25T12:48:10.980Z</time>
      </trkpt>
      <trkpt lat="60.72559" lon="4.97544">
        <ele>80.081362</ele>
        <time>2020-07-25T12:49:37.006Z</time>
      </trkpt>
      <trkpt lat="60.72764" lon="4.97361">
        <ele>74.267626</ele>
        <time>2020-07-25T12:50:32.995Z</time>
      </trkpt>
      <trkpt lat="60.72979" lon="4.97194">
        <ele>74.944255</ele>
        <time>2020-07-25T12:51:36.996Z</time>
      </trkpt>
      <trkpt lat="60.73197" lon="4.97102">
        <ele>71.532611</ele>
        <time>2020-07-25T12:52:37.056Z</time>
      </trkpt>
      <trkpt lat="60.73436" lon="4.96853">
        <ele>58.283837</ele>
        <time>2020-07-25T12:53:21.990Z</time>
      </trkpt>
      <trkpt lat="60.73645" lon="4.96708">
        <ele>60.668067</ele>
        <time>2020-07-25T12:54:08.983Z</time>
      </trkpt>
      <trkpt lat="60.73838" lon="4.96455">
        <ele>68.663401</ele>
        <time>2020-07-25T12:55:06.044Z</time>
      </trkpt>
      <trkpt lat="60.74033" lon="4.96237">
        <ele>71.966029</ele>
        <time>2020-07-25T12:56:05.996Z</time>
      </trkpt>
      <trkpt lat="60.74238" lon="4.95977">
        <ele>75.084214</ele>
        <time>2020-07-25T12:57:05.988Z</time>
      </trkpt>
      <trkpt lat="60.7442" lon="4.95619">
        <ele>75.587213</ele>
        <time>2020-07-25T12:58:07.991Z</time>
      </trkpt>
      <trkpt lat="60.74665" lon="4.95465">
        <ele>69.295136</ele>
        <time>2020-07-25T12:58:47.993Z</time>
      </trkpt>
      <trkpt lat="60.74982" lon="4.95577">
        <ele>55.156336</ele>
        <time>2020-07-25T12:59:27.996Z</time>
      </trkpt>
      <trkpt lat="60.75207" lon="4.95657">
        <ele>53.305736</ele>
        <time>2020-07-25T13:00:09.008Z</time>
      </trkpt>
      <trkpt lat="60.75433" lon="4.95571">
        <ele>69.139586</ele>
        <time>2020-07-25T13:01:09.004Z</time>
      </trkpt>
      <trkpt lat="60.75606" lon="4.9539">
        <ele>78.827103</ele>
        <time>2020-07-25T13:02:29.993Z</time>
      </trkpt>
      <trkpt lat="60.75755" lon="4.95067">
        <ele>79.703094</ele>
        <time>2020-07-25T13:03:34.985Z</time>
      </trkpt>
      <trkpt lat="60.75899" lon="4.94746">
        <ele>77.169283</ele>
        <time>2020-07-25T13:04:22.986Z</time>
      </trkpt>
      <trkpt lat="60.76037" lon="4.9436">
        <ele>76.634855</ele>
        <time>2020-07-25T13:05:16.029Z</time>
      </trkpt>
      <trkpt lat="60.76199" lon="4.94075">
        <ele>78.195496</ele>
        <time>2020-07-25T13:05:58.006Z</time>
      </trkpt>
      <trkpt lat="60.76372" lon="4.93766">
        <ele>78.614538</ele>
        <time>2020-07-25T13:06:38.012Z</time>
      </trkpt>
      <trkpt lat="60.76434" lon="4.93333">
        <ele>74.951842</ele>
        <time>2020-07-25T13:07:36.993Z</time>
      </trkpt>
      <trkpt lat="60.76498" lon="4.92877">
        <ele>73.668311</ele>
        <time>2020-07-25T13:08:35.987Z</time>
      </trkpt>
      <trkpt lat="60.76487" lon="4.9239">
        <ele>65.193223</ele>
        <time>2020-07-25T13:09:15.994Z</time>
      </trkpt>
      <trkpt lat="60.7641" lon="4.91943">
        <ele>66.227148</ele>
        <time>2020-07-25T13:09:56.001Z</time>
      </trkpt>
      <trkpt lat="60.76456" lon="4.91514">
        <ele>66.250075</ele>
        <time>2020-07-25T13:10:47.037Z</time>
      </trkpt>
      <trkpt lat="60.767" lon="4.91536">
        <ele>58.063103</ele>
        <time>2020-07-25T13:11:31.991Z</time>
      </trkpt>
      <trkpt lat="60.76888" lon="4.9183">
        <ele>55.662578</ele>
        <time>2020-07-25T13:12:20.995Z</time>
      </trkpt>
      <trkpt lat="60.77054" lon="4.92069">
        <ele>61.808026</ele>
        <time>2020-07-25T13:13:20.990Z</time>
      </trkpt>
      <trkpt lat="60.77244" lon="4.92172">
        <ele>64.247581</ele>
        <time>2020-07-25T13:14:20.996Z</time>
      </trkpt>
      <trkpt lat="60.77418" lon="4.92389">
        <ele>66.572711</ele>
        <time>2020-07-25T13:15:19.039Z</time>
      </trkpt>
      <trkpt lat="60.77585" lon="4.92681">
        <ele>70.346613</ele>
        <time>2020-07-25T13:16:18.008Z</time>
      </trkpt>
      <trkpt lat="60.77673" lon="4.93098">
        <ele>75.407015</ele>
        <time>2020-07-25T13:17:10.993Z</time>
      </trkpt>
      <trkpt lat="60.77818" lon="4.9326">
        <ele>72.816686</ele>
        <time>2020-07-25T13:17:55.987Z</time>
      </trkpt>
      <trkpt lat="60.78042" lon="4.93296">
        <ele>74.147662</ele>
        <time>2020-07-25T13:19:35.997Z</time>
      </trkpt>
      <trkpt lat="60.78267" lon="4.93307">
        <ele>72.30664</ele>
        <time>2020-07-25T13:20:45.013Z</time>
      </trkpt>
      <trkpt lat="60.78515" lon="4.93497">
        <ele>66.808741</ele>
        <time>2020-07-25T13:21:25.013Z</time>
      </trkpt>
      <trkpt lat="60.78697" lon="4.93341">
        <ele>64.830108</ele>
        <time>2020-07-25T13:22:19.187Z</time>
      </trkpt>
      <trkpt lat="60.78867" lon="4.92948">
        <ele>60.047458</ele>
        <time>2020-07-25T13:23:03.980Z</time>
      </trkpt>
      <trkpt lat="60.79109" lon="4.92715">
        <ele>55.799373</ele>
        <time>2020-07-25T13:23:45.996Z</time>
      </trkpt>
      <trkpt lat="60.79301" lon="4.92488">
        <ele>57.684792</ele>
        <time>2020-07-25T13:24:39.995Z</time>
      </trkpt>
      <trkpt lat="60.79516" lon="4.92409">
        <ele>57.883808</ele>
        <time>2020-07-25T13:25:39.980Z</time>
      </trkpt>
      <trkpt lat="60.79749" lon="4.92203">
        <ele>54.325451</ele>
        <time>2020-07-25T13:26:19.996Z</time>
      </trkpt>
      <trkpt lat="60.79987" lon="4.92138">
        <ele>51.159067</ele>
        <time>2020-07-25T13:27:05.991Z</time>
      </trkpt>
      <trkpt lat="60.8021" lon="4.91922">
        <ele>51.494026</ele>
        <time>2020-07-25T13:27:55.987Z</time>
      </trkpt>
      <trkpt lat="60.80367" lon="4.9199">
        <ele>56.609184</ele>
        <time>2020-07-25T13:29:03.028Z</time>
      </trkpt>
      <trkpt lat="60.80274" lon="4.92422">
        <ele>54.87823</ele>
        <time>2020-07-25T13:29:40.038Z</time>
      </trkpt>
      <trkpt lat="60.8021" lon="4.9284">
        <ele>61.556544</ele>
        <time>2020-07-25T13:30:35.989Z</time>
      </trkpt>
      <trkpt lat="60.80083" lon="4.93173">
        <ele>65.085552</ele>
        <time>2020-07-25T13:31:34.002Z</time>
      </trkpt>
      <trkpt lat="60.79889" lon="4.93473">
        <ele>67.099202</ele>
        <time>2020-07-25T13:32:13.990Z</time>
      </trkpt>
      <trkpt lat="60.79802" lon="4.93952">
        <ele>57.067625</ele>
        <time>2020-07-25T13:32:54.015Z</time>
      </trkpt>
      <trkpt lat="60.79685" lon="4.94335">
        <ele>61.173391</ele>
        <time>2020-07-25T13:36:22.017Z</time>
      </trkpt>
      <trkpt lat="60.79618" lon="4.94848">
        <ele>62.042771</ele>
        <time>2020-07-25T13:37:15.984Z</time>
      </trkpt>
      <trkpt lat="60.79428" lon="4.94981">
        <ele>62.029479</ele>
        <time>2020-07-25T13:38:06.988Z</time>
      </trkpt>
      <trkpt lat="60.79243" lon="4.95221">
        <ele>66.569307</ele>
        <time>2020-07-25T13:39:05.000Z</time>
      </trkpt>
      <trkpt lat="60.79097" lon="4.9549">
        <ele>79.276272</ele>
        <time>2020-07-25T13:40:23.990Z</time>
      </trkpt>
      <trkpt lat="60.7891" lon="4.95781">
        <ele>81.071103</ele>
        <time>2020-07-25T13:41:37.988Z</time>
      </trkpt>
      <trkpt lat="60.78749" lon="4.96083">
        <ele>79.953567</ele>
        <time>2020-07-25T13:42:37.995Z</time>
      </trkpt>
      <trkpt lat="60.78641" lon="4.96468">
        <ele>85.251318</ele>
        <time>2020-07-25T13:43:39.991Z</time>
      </trkpt>
      <trkpt lat="60.78547" lon="4.96877">
        <ele>87.824856</ele>
        <time>2020-07-25T13:44:44.985Z</time>
      </trkpt>
      <trkpt lat="60.78736" lon="4.97211">
        <ele>78.997943</ele>
        <time>2020-07-25T13:45:11.995Z</time>
      </trkpt>
      <trkpt lat="60.79001" lon="4.97168">
        <ele>67.969081</ele>
        <time>2020-07-25T13:45:31.999Z</time>
      </trkpt>
      <trkpt lat="60.792" lon="4.97297">
        <ele>66.599958</ele>
        <time>2020-07-25T13:46:46.006Z</time>
      </trkpt>
      <trkpt lat="60.79397" lon="4.97568">
        <ele>69.118686</ele>
        <time>2020-07-25T13:47:50.995Z</time>
      </trkpt>
      <trkpt lat="60.79635" lon="4.97536">
        <ele>61.239512</ele>
        <time>2020-07-25T13:48:14.996Z</time>
      </trkpt>
      <trkpt lat="60.79853" lon="4.97692">
        <ele>59.746952</ele>
        <time>2020-07-25T13:48:55.008Z</time>
      </trkpt>
      <trkpt lat="60.80097" lon="4.97873">
        <ele>59.90324</ele>
        <time>2020-07-25T13:49:36.017Z</time>
      </trkpt>
      <trkpt lat="60.80302" lon="4.97976">
        <ele>63.031611</ele>
        <time>2020-07-25T13:50:36.992Z</time>
      </trkpt>
      <trkpt lat="60.80434" lon="4.98302">
        <ele>63.148817</ele>
        <time>2020-07-25T13:51:29.000Z</time>
      </trkpt>
      <trkpt lat="60.80405" lon="4.98713">
        <ele>70.043767</ele>
        <time>2020-07-25T13:52:33.004Z</time>
      </trkpt>
      <trkpt lat="60.80365" lon="4.99125">
        <ele>72.16688</ele>
        <time>2020-07-25T13:53:24.010Z</time>
      </trkpt>
      <trkpt lat="60.8033" lon="4.99538">
        <ele>71.337972</ele>
        <time>2020-07-25T13:54:06.011Z</time>
      </trkpt>
      <trkpt lat="60.80285" lon="4.99943">
        <ele>82.569625</ele>
        <time>2020-07-25T13:55:32.988Z</time>
      </trkpt>
      <trkpt lat="60.80147" lon="5.00302">
        <ele>80.551604</ele>
        <time>2020-07-25T13:56:38.021Z</time>
      </trkpt>
      <trkpt lat="60.8001" lon="5.00609">
        <ele>83.741734</ele>
        <time>2020-07-25T13:57:30.005Z</time>
      </trkpt>
      <trkpt lat="60.7989" lon="5.00951">
        <ele>86.567405</ele>
        <time>2020-07-25T13:58:37.995Z</time>
      </trkpt>
      <trkpt lat="60.79723" lon="5.01159">
        <ele>86.537051</ele>
        <time>2020-07-25T14:08:36.992Z</time>
      </trkpt>
      <trkpt lat="60.79899" lon="5.00951">
        <ele>88.737365</ele>
        <time>2020-07-25T14:11:04.993Z</time>
      </trkpt>
      <trkpt lat="60.80066" lon="5.00502">
        <ele>84.620373</ele>
        <time>2020-07-25T14:11:44.998Z</time>
      </trkpt>
      <trkpt lat="60.80285" lon="5.00531">
        <ele>76.334018</ele>
        <time>2020-07-25T14:12:14.006Z</time>
      </trkpt>
      <trkpt lat="60.80504" lon="5.00436">
        <ele>67.438467</ele>
        <time>2020-07-25T14:12:38.005Z</time>
      </trkpt>
      <trkpt lat="60.80798" lon="5.00452">
        <ele>56.847497</ele>
        <time>2020-07-25T14:13:13.017Z</time>
      </trkpt>
      <trkpt lat="60.81045" lon="5.0056">
        <ele>51.972845</ele>
        <time>2020-07-25T14:13:42.010Z</time>
      </trkpt>
      <trkpt lat="60.81285" lon="5.007">
        <ele>55.076454</ele>
        <time>2020-07-25T14:14:22.007Z</time>
      </trkpt>
      <trkpt lat="60.8151" lon="5.00483">
        <ele>54.348994</ele>
        <time>2020-07-25T14:15:49.002Z</time>
      </trkpt>
      <trkpt lat="60.81709" lon="5.00645">
        <ele>64.783696</ele>
        <time>2020-07-25T14:16:59.020Z</time>
      </trkpt>
      <trkpt lat="60.81879" lon="5.00893">
        <ele>64.643258</ele>
        <time>2020-07-25T14:17:38.995Z</time>
      </trkpt>
      <trkpt lat="60.82046" lon="5.01146">
        <ele>60.178423</ele>
        <time>2020-07-25T14:18:18.995Z</time>
      </trkpt>
      <trkpt lat="60.8222" lon="5.01362">
        <ele>67.394498</ele>
        <time>2020-07-25T14:18:58.981Z</time>
      </trkpt>
      <trkpt lat="60.82424" lon="5.01677">
        <ele>74.749366</ele>
        <time>2020-07-25T14:19:39.006Z</time>
      </trkpt>
      <trkpt lat="60.8262" lon="5.01988">
        <ele>61.966669</ele>
        <time>2020-07-25T14:20:21.998Z</time>
      </trkpt>
      <trkpt lat="60.82781" lon="5.02247">
        <ele>57.777032</ele>
        <time>2020-07-25T14:21:01.995Z</time>
      </trkpt>
      <trkpt lat="60.82933" lon="5.0253">
        <ele>61.388113</ele>
        <time>2020-07-25T14:21:42.009Z</time>
      </trkpt>
      <trkpt lat="60.83088" lon="5.02812">
        <ele>62.3311</ele>
        <time>2020-07-25T14:22:22.040Z</time>
      </trkpt>
      <trkpt lat="60.83253" lon="5.03111">
        <ele>60.55755</ele>
        <time>2020-07-25T14:23:03.983Z</time>
      </trkpt>
      <trkpt lat="60.8341" lon="5.03394">
        <ele>50.597711</ele>
        <time>2020-07-25T14:23:45.004Z</time>
      </trkpt>
      <trkpt lat="60.8357" lon="5.03678">
        <ele>49.25941</ele>
        <time>2020-07-25T14:24:24.992Z</time>
      </trkpt>
      <trkpt lat="60.83724" lon="5.03955">
        <ele>55.106154</ele>
        <time>2020-07-25T14:25:05.001Z</time>
      </trkpt>
      <trkpt lat="60.83891" lon="5.04259">
        <ele>61.541307</ele>
        <time>2020-07-25T14:25:47.026Z</time>
      </trkpt>
      <trkpt lat="60.84047" lon="5.04552">
        <ele>59.91809</ele>
        <time>2020-07-25T14:26:27.005Z</time>
      </trkpt>
      <trkpt lat="60.84375" lon="5.05141">
        <ele>64.659479</ele>
        <time>2020-07-25T14:27:51.696Z</time>
      </trkpt>
      <trkpt lat="60.84615" lon="5.05588">
        <ele>61.555186</ele>
        <time>2020-07-25T14:28:49.985Z</time>
      </trkpt>
      <trkpt lat="60.8479" lon="5.05876">
        <ele>65.233244</ele>
        <time>2020-07-25T14:29:32.007Z</time>
      </trkpt>
      <trkpt lat="60.84964" lon="5.0614">
        <ele>65.135646</ele>
        <time>2020-07-25T14:30:12.011Z</time>
      </trkpt>
      <trkpt lat="60.85512" lon="5.06513">
        <ele>56.758762</ele>
        <time>2020-07-25T14:32:34.988Z</time>
      </trkpt>
      <trkpt lat="60.85711" lon="5.0638">
        <ele>51.59396</ele>
        <time>2020-07-25T14:37:14.024Z</time>
      </trkpt>
      <trkpt lat="60.85568" lon="5.06613">
        <ele>47.371824</ele>
        <time>2020-07-25T14:38:14.004Z</time>
      </trkpt>
      <trkpt lat="60.85397" lon="5.06838">
        <ele>51.422013</ele>
        <time>2020-07-25T14:39:16.015Z</time>
      </trkpt>
      <trkpt lat="60.85271" lon="5.07152">
        <ele>59.519194</ele>
        <time>2020-07-25T14:40:36.004Z</time>
      </trkpt>
      <trkpt lat="60.8518" lon="5.07514">
        <ele>70.058985</ele>
        <time>2020-07-25T14:42:05.003Z</time>
      </trkpt>
      <trkpt lat="60.85053" lon="5.07819">
        <ele>73.252047</ele>
        <time>2020-07-25T14:43:20.008Z</time>
      </trkpt>
      <trkpt lat="60.84898" lon="5.0813">
        <ele>72.387839</ele>
        <time>2020-07-25T14:44:10.979Z</time>
      </trkpt>
      <trkpt lat="60.84815" lon="5.08511">
        <ele>81.772293</ele>
        <time>2020-07-25T14:45:30.987Z</time>
      </trkpt>
      <trkpt lat="60.84704" lon="5.08846">
        <ele>90.445967</ele>
        <time>2020-07-25T14:47:15.054Z</time>
      </trkpt>
      <trkpt lat="60.84778" lon="5.09184">
        <ele>90.230507</ele>
        <time>2020-07-25T14:50:22.995Z</time>
      </trkpt>
      <trkpt lat="60.84965" lon="5.0941">
        <ele>96.434234</ele>
        <time>2020-07-25T14:51:31.012Z</time>
      </trkpt>
      <trkpt lat="60.8513" lon="5.09673">
        <ele>95.639125</ele>
        <time>2020-07-25T14:52:10.992Z</time>
      </trkpt>
      <trkpt lat="60.85046" lon="5.10069">
        <ele>94.706206</ele>
        <time>2020-07-25T14:53:00.998Z</time>
      </trkpt>
      <trkpt lat="60.84976" lon="5.10474">
        <ele>97.290131</ele>
        <time>2020-07-25T14:53:46.037Z</time>
      </trkpt>
      <trkpt lat="60.84996" lon="5.10975">
        <ele>90.065896</ele>
        <time>2020-07-25T14:54:23.996Z</time>
      </trkpt>
      <trkpt lat="60.85186" lon="5.11245">
        <ele>77.632693</ele>
        <time>2020-07-25T14:54:44.999Z</time>
      </trkpt>
      <trkpt lat="60.85402" lon="5.11367">
        <ele>62.544662</ele>
        <time>2020-07-25T14:55:10.997Z</time>
      </trkpt>
      <trkpt lat="60.85232" lon="5.11626">
        <ele>58.756648</ele>
        <time>2020-07-25T14:55:54.992Z</time>
      </trkpt>
      <trkpt lat="60.85083" lon="5.1195">
        <ele>74.10831</ele>
        <time>2020-07-25T14:57:28.013Z</time>
      </trkpt>
      <trkpt lat="60.84918" lon="5.12157">
        <ele>80.111676</ele>
        <time>2020-07-25T14:59:04.020Z</time>
      </trkpt>
      <trkpt lat="60.84779" lon="5.1244">
        <ele>83.911965</ele>
        <time>2020-07-25T15:00:10.032Z</time>
      </trkpt>
      <trkpt lat="60.84637" lon="5.12726">
        <ele>90.800916</ele>
        <time>2020-07-25T15:01:35.982Z</time>
      </trkpt>
      <trkpt lat="60.84585" lon="5.13128">
        <ele>98.198181</ele>
        <time>2020-07-25T15:03:09.984Z</time>
      </trkpt>
      <trkpt lat="60.8456" lon="5.13578">
        <ele>86.936576</ele>
        <time>2020-07-25T15:03:46.003Z</time>
      </trkpt>
      <trkpt lat="60.8463" lon="5.13998">
        <ele>74.173206</ele>
        <time>2020-07-25T15:04:07.994Z</time>
      </trkpt>
      <trkpt lat="60.84497" lon="5.14317">
        <ele>85.330119</ele>
        <time>2020-07-25T15:05:25.994Z</time>
      </trkpt>
      <trkpt lat="60.84467" lon="5.14728">
        <ele>87.709515</ele>
        <time>2020-07-25T15:06:36.996Z</time>
      </trkpt>
      <trkpt lat="60.84524" lon="5.15247">
        <ele>74.331398</ele>
        <time>2020-07-25T15:07:06.032Z</time>
      </trkpt>
      <trkpt lat="60.84718" lon="5.15498">
        <ele>59.388593</ele>
        <time>2020-07-25T15:07:30.985Z</time>
      </trkpt>
      <trkpt lat="60.84598" lon="5.15777">
        <ele>53.499561</ele>
        <time>2020-07-25T15:08:04.002Z</time>
      </trkpt>
      <trkpt lat="60.84483" lon="5.16142">
        <ele>60.261359</ele>
        <time>2020-07-25T15:09:15.040Z</time>
      </trkpt>
      <trkpt lat="60.84314" lon="5.16488">
        <ele>58.330495</ele>
        <time>2020-07-25T15:10:19.986Z</time>
      </trkpt>
      <trkpt lat="60.84336" lon="5.17018">
        <ele>59.006685</ele>
        <time>2020-07-25T15:11:14.989Z</time>
      </trkpt>
    </trkseg>
  </trk>
</gpx>